VTSS/HDY METAR and TAF weather

Enter ICAO airport designator
Station Type Date Time Source
VTSS METAR 2019/10/23 20:00 UTC NOAA

VTSS 232000Z 00000KT 9999 FEW020 24/24 Q1008 NOSIG


Station Type Date Time Source
VTSS Decoded METAR 2019/10/23 20:00 UTC NOAA

Hat Yai, Thailand (VTSS) 06-55N 100-26E 35M
Oct 23, 2019 - 04:00 PM EDT / 2019.10.23 2000 UTC
Wind: Calm:0
Visibility: greater than 7 mile(s):0
Sky conditions: mostly clear
Temperature: 75 F (24 C)
Dew Point: 75 F (24 C)
Relative Humidity: 100%
Pressure (altimeter): 29.77 in. Hg (1008 hPa)
ob: VTSS 232000Z 00000KT 9999 FEW020 24/24 Q1008 NOSIG
cycle: 20

Station Type Date Time Source
VTSS TAF 2019/10/23 18:39 UTC NOAA

TAF VTSS 231700Z 2318/2418 VRB02KT 9000 FEW020 SCT100
BECMG 2320/2322 3000 BR
BECMG 2400/2402 9999 NSW
TEMPO 2405/2411 VRB10G20KT 3000 TSRA FEW016CB SCT018 BKN100

Example: see airport list